createdAt,value
2018-09-29T00:00:35.360Z,87.08
2018-09-29T00:01:35.347Z,86.90
2018-09-29T00:02:35.316Z,86.80
2018-09-29T00:03:35.298Z,86.70
2018-09-29T00:04:35.276Z,87.08
2018-09-29T00:05:35.255Z,86.90
2018-09-29T00:06:35.233Z,87.75
2018-09-29T00:07:35.221Z,86.90
2018-09-29T00:08:35.188Z,86.99
2018-09-29T00:09:35.169Z,87.65
2018-09-29T00:10:35.145Z,87.56
2018-09-29T00:11:35.127Z,87.65
2018-09-29T00:12:35.101Z,87.46
2018-09-29T00:13:35.151Z,87.46
2018-09-29T00:14:35.062Z,87.65
2018-09-29T00:15:35.039Z,87.46
2018-09-29T00:16:35.044Z,87.85
2018-09-29T00:17:34.995Z,87.46
2018-09-29T00:18:34.975Z,87.65
2018-09-29T00:19:34.954Z,87.46
2018-09-29T00:20:34.933Z,87.46
2018-09-29T00:21:34.911Z,88.04
2018-09-29T00:22:34.888Z,87.94
2018-09-29T00:23:34.865Z,88.13
2018-09-29T00:24:34.848Z,87.94
2018-09-29T00:25:34.826Z,87.75
2018-09-29T00:26:34.801Z,87.65
2018-09-29T00:27:34.780Z,87.65
2018-09-29T00:28:34.793Z,87.46
2018-09-29T00:29:34.738Z,87.75
2018-09-29T00:30:34.716Z,87.85
2018-09-29T00:31:34.694Z,88.04
2018-09-29T00:32:34.674Z,87.85
2018-09-29T00:33:34.651Z,87.46
2018-09-29T00:34:34.634Z,87.80
2018-09-29T00:35:34.608Z,87.46
2018-09-29T00:36:34.590Z,87.08
2018-09-29T00:37:34.566Z,86.90
2018-09-29T00:38:34.545Z,86.70
2018-09-29T00:39:34.524Z,86.61
2018-09-29T00:40:34.501Z,86.80
2018-09-29T00:41:34.481Z,86.13
2018-09-29T00:42:34.466Z,86.32
2018-09-29T00:43:34.437Z,85.94
2018-09-29T00:44:34.415Z,85.85
2018-09-29T00:45:34.392Z,86.04
2018-09-29T00:46:34.374Z,85.94
2018-09-29T00:47:34.347Z,86.13
2018-09-29T00:48:34.327Z,86.04
2018-09-29T00:49:34.309Z,85.94
2018-09-29T00:50:34.289Z,86.32
2018-09-29T00:51:34.263Z,86.22
2018-09-29T00:52:34.240Z,86.51
2018-09-29T00:53:34.219Z,86.61
2018-09-29T00:54:34.197Z,85.94
2018-09-29T00:55:34.176Z,85.94
2018-09-29T00:56:34.153Z,85.94
2018-09-29T00:57:34.133Z,85.85
2018-09-29T00:58:34.117Z,85.90
2018-09-29T00:59:34.089Z,86.09
2018-09-29T01:00:34.097Z,86.38
2018-09-29T01:01:34.043Z,86.38
2018-09-29T01:02:34.023Z,86.66
2018-09-29T01:03:34.006Z,87.13
2018-09-29T01:04:33.979Z,86.85
2018-09-29T01:05:33.962Z,87.23
2018-09-29T01:06:33.961Z,86.94
2018-09-29T01:07:33.914Z,87.61
2018-09-29T01:08:33.893Z,87.80
2018-09-29T01:09:33.872Z,87.42
2018-09-29T01:10:33.851Z,87.61
2018-09-29T01:11:33.827Z,87.32
2018-09-29T01:12:33.805Z,87.52
2018-09-29T01:13:33.783Z,86.85
2018-09-29T01:14:33.763Z,86.94
2018-09-29T01:15:33.745Z,87.42
2018-09-29T01:16:33.722Z,87.90
2018-09-29T01:17:33.697Z,87.61
2018-09-29T01:18:33.707Z,87.42
2018-09-29T01:19:33.672Z,87.80
2018-09-29T01:20:33.629Z,87.42
2018-09-29T01:21:33.621Z,87.80
2018-09-29T01:22:33.586Z,87.90
2018-09-29T01:23:33.571Z,87.80
2018-09-29T01:24:33.544Z,87.99
2018-09-29T01:25:33.520Z,87.52
2018-09-29T01:26:33.498Z,87.90
2018-09-29T01:27:33.477Z,87.90
2018-09-29T01:28:33.467Z,87.99
2018-09-29T01:29:33.442Z,88.09
2018-09-29T01:30:33.422Z,88.33
2018-09-29T01:31:33.410Z,88.94
2018-09-29T01:32:33.367Z,88.71
2018-09-29T01:33:33.347Z,88.33
2018-09-29T01:34:33.325Z,88.42
2018-09-29T01:35:33.462Z,88.80
2018-09-29T01:36:33.279Z,89.37
2018-09-29T01:37:33.264Z,89.09
2018-09-29T01:38:33.235Z,89.94
2018-09-29T01:39:33.271Z,90.14
2018-09-29T01:40:33.192Z,90.42
2018-09-29T01:41:33.170Z,90.94
2018-09-29T01:42:33.150Z,90.89
2018-09-29T01:43:33.128Z,91.08
2018-09-29T01:44:33.106Z,91.47
2018-09-29T01:45:33.083Z,90.80
2018-09-29T01:46:33.060Z,90.42
2018-09-29T01:47:33.039Z,90.89
2018-09-29T01:48:33.017Z,90.14
2018-09-29T01:49:32.995Z,90.33
2018-09-29T01:50:32.974Z,90.42
2018-09-29T01:51:32.953Z,89.94
2018-09-29T01:52:32.928Z,90.42
2018-09-29T01:53:32.907Z,90.33
2018-09-29T01:54:32.888Z,90.89
2018-09-29T01:55:32.860Z,90.89
2018-09-29T01:56:32.839Z,90.99
2018-09-29T01:57:32.817Z,90.99
2018-09-29T01:58:32.796Z,90.89
2018-09-29T01:59:32.777Z,90.99
2018-09-29T02:00:32.750Z,90.61
2018-09-29T02:01:32.732Z,90.42
2018-09-29T02:02:32.710Z,90.04
2018-09-29T02:03:32.688Z,90.04
2018-09-29T02:04:32.665Z,90.33
2018-09-29T02:05:32.641Z,90.61
2018-09-29T02:06:32.618Z,90.42
2018-09-29T02:07:32.596Z,90.14
2018-09-29T02:08:32.574Z,90.37
2018-09-29T02:09:32.561Z,90.61
2018-09-29T02:10:32.533Z,90.28
2018-09-29T02:11:32.507Z,90.04
2018-09-29T02:12:32.487Z,90.61
2018-09-29T02:13:32.463Z,90.52
2018-09-29T02:14:32.442Z,90.42
2018-09-29T02:15:32.418Z,90.89
2018-09-29T02:16:32.399Z,90.89
2018-09-29T02:17:32.376Z,90.99
2018-09-29T02:18:32.352Z,90.99
2018-09-29T02:19:32.330Z,90.99
2018-09-29T02:20:32.308Z,91.08
2018-09-29T02:21:32.288Z,90.89
2018-09-29T02:22:32.270Z,90.99
2018-09-29T02:23:32.243Z,90.42
2018-09-29T02:24:32.221Z,90.23
2018-09-29T02:25:32.202Z,90.04
2018-09-29T02:26:32.177Z,90.80
2018-09-29T02:27:32.154Z,90.70
2018-09-29T02:28:32.170Z,90.89
2018-09-29T02:29:32.109Z,90.70
2018-09-29T02:30:32.090Z,90.14
2018-09-29T02:31:32.070Z,90.33
2018-09-29T02:32:32.046Z,89.85
2018-09-29T02:33:32.021Z,90.52
2018-09-29T02:34:32.002Z,90.52
2018-09-29T02:35:31.976Z,90.42
2018-09-29T02:36:31.956Z,89.85
2018-09-29T02:37:31.931Z,89.66
2018-09-29T02:38:31.911Z,88.90
2018-09-29T02:39:31.887Z,89.00
2018-09-29T02:40:31.873Z,88.61
2018-09-29T02:41:31.842Z,88.61
2018-09-29T02:42:31.823Z,87.95
2018-09-29T02:43:31.796Z,88.04
2018-09-29T02:44:31.775Z,88.23
2018-09-29T02:45:31.752Z,87.85
2018-09-29T02:46:31.731Z,87.95
2018-09-29T02:47:31.716Z,87.38
2018-09-29T02:48:31.685Z,88.04
2018-09-29T02:49:31.665Z,88.13
2018-09-29T02:50:31.643Z,88.23
2018-09-29T02:51:31.619Z,88.42
2018-09-29T02:52:31.597Z,88.23
2018-09-29T02:53:31.577Z,88.33
2018-09-29T02:54:31.569Z,88.61
2018-09-29T02:55:31.530Z,89.09
2018-09-29T02:56:31.508Z,89.18
2018-09-29T02:57:31.493Z,88.61
2018-09-29T02:58:31.464Z,88.52
2018-09-29T02:59:31.443Z,88.52
2018-09-29T03:00:31.420Z,87.76
2018-09-29T03:01:31.397Z,87.95
2018-09-29T03:02:31.374Z,88.04
2018-09-29T03:03:31.352Z,88.04
2018-09-29T03:04:31.332Z,87.95
2018-09-29T03:05:31.308Z,88.13
2018-09-29T03:06:31.285Z,87.66
2018-09-29T03:07:31.264Z,88.42
2018-09-29T03:08:31.248Z,88.42
2018-09-29T03:09:31.231Z,89.18
2018-09-29T03:10:31.194Z,89.61
2018-09-29T03:11:31.175Z,89.80
2018-09-29T03:12:31.151Z,90.47
2018-09-29T03:13:31.133Z,90.47
2018-09-29T03:14:31.110Z,90.19
2018-09-29T03:15:31.092Z,91.04
2018-09-29T03:16:31.062Z,90.85
2018-09-29T03:17:31.037Z,90.37
2018-09-29T03:18:31.040Z,90.47
2018-09-29T03:19:30.997Z,90.09
2018-09-29T03:20:30.975Z,90.47
2018-09-29T03:21:30.949Z,90.00
2018-09-29T03:22:30.938Z,90.19
2018-09-29T03:23:30.905Z,90.47
2018-09-29T03:24:30.881Z,90.75
2018-09-29T03:25:30.859Z,90.66
2018-09-29T03:26:30.836Z,90.75
2018-09-29T03:27:30.813Z,90.19
2018-09-29T03:28:30.788Z,90.28
2018-09-29T03:29:30.774Z,90.47
2018-09-29T03:30:30.747Z,90.00
2018-09-29T03:31:30.759Z,90.28
2018-09-29T03:32:30.703Z,89.90
2018-09-29T03:33:30.688Z,90.37
2018-09-29T03:34:30.662Z,90.19
2018-09-29T03:35:30.630Z,90.56
2018-09-29T03:36:30.611Z,90.66
2018-09-29T03:37:30.588Z,90.94
2018-09-29T03:38:30.564Z,90.56
2018-09-29T03:39:30.544Z,90.85
2018-09-29T03:40:30.528Z,90.85
2018-09-29T03:41:30.496Z,90.75
2018-09-29T03:42:30.473Z,91.04
2018-09-29T03:43:30.470Z,90.75
2018-09-29T03:44:30.453Z,90.37
2018-09-29T03:45:30.409Z,90.66
2018-09-29T03:46:30.390Z,91.04
2018-09-29T03:47:30.360Z,90.94
2018-09-29T03:48:30.339Z,90.94
2018-09-29T03:49:30.317Z,90.94
2018-09-29T03:50:30.296Z,90.94
2018-09-29T03:51:30.273Z,90.94
2018-09-29T03:52:30.253Z,90.75
2018-09-29T03:53:30.285Z,90.85
2018-09-29T03:54:30.205Z,90.94
2018-09-29T03:55:30.180Z,90.75
2018-09-29T03:56:30.158Z,90.75
2018-09-29T03:57:30.135Z,90.75
2018-09-29T03:58:30.113Z,90.47
2018-09-29T03:59:30.089Z,90.75
2018-09-29T04:00:30.067Z,90.66
2018-09-29T04:01:30.045Z,90.66
2018-09-29T04:02:30.022Z,90.75
2018-09-29T04:03:30.021Z,90.85
2018-09-29T04:04:29.975Z,90.00
2018-09-29T04:05:29.960Z,90.37
2018-09-29T04:06:29.930Z,90.37
2018-09-29T04:07:29.916Z,89.90
2018-09-29T04:08:29.887Z,90.75
2018-09-29T04:09:29.862Z,90.75
2018-09-29T04:10:29.840Z,90.19
2018-09-29T04:11:29.818Z,90.28
2018-09-29T04:12:29.795Z,90.28
2018-09-29T04:13:29.773Z,90.85
2018-09-29T04:14:29.758Z,91.04
2018-09-29T04:15:29.728Z,90.75
2018-09-29T04:16:29.708Z,91.04
2018-09-29T04:17:29.682Z,90.66
2018-09-29T04:18:29.661Z,91.33
2018-09-29T04:19:29.643Z,90.94
2018-09-29T04:20:29.612Z,90.94
2018-09-29T04:21:29.612Z,90.28
2018-09-29T04:22:29.567Z,90.28
2018-09-29T04:23:29.545Z,90.28
2018-09-29T04:24:29.524Z,90.75
2018-09-29T04:25:29.499Z,91.04
2018-09-29T04:26:29.477Z,90.19
2018-09-29T04:27:29.460Z,90.75
2018-09-29T04:28:29.433Z,90.47
2018-09-29T04:29:29.413Z,90.56
2018-09-29T04:30:29.388Z,89.90
2018-09-29T04:31:29.366Z,90.19
2018-09-29T04:32:29.340Z,90.37
2018-09-29T04:33:29.318Z,90.37
2018-09-29T04:34:29.295Z,90.37
2018-09-29T04:35:29.271Z,90.28
2018-09-29T04:36:29.253Z,90.28
2018-09-29T04:37:29.297Z,91.04
2018-09-29T04:38:29.203Z,90.94
2018-09-29T04:39:29.180Z,91.04
2018-09-29T04:40:29.158Z,90.66
2018-09-29T04:41:29.136Z,90.37
2018-09-29T04:42:29.112Z,90.75
2018-09-29T04:43:29.090Z,91.42
2018-09-29T04:44:29.067Z,91.23
2018-09-29T04:45:29.046Z,90.99
2018-09-29T04:46:29.021Z,91.19
2018-09-29T04:47:29.009Z,91.38
2018-09-29T04:48:28.980Z,90.90
2018-09-29T04:49:28.953Z,91.56
2018-09-29T04:50:28.974Z,91.94
2018-09-29T04:51:28.910Z,92.32
2018-09-29T04:52:28.887Z,92.71
2018-09-29T04:53:28.863Z,92.42
2018-09-29T04:54:28.840Z,92.23
2018-09-29T04:55:28.822Z,91.56
2018-09-29T04:56:28.795Z,91.85
2018-09-29T04:57:28.773Z,91.85
2018-09-29T04:58:28.751Z,92.04
2018-09-29T04:59:28.728Z,92.23
2018-09-29T05:00:28.703Z,92.04
2018-09-29T05:01:28.679Z,91.66
2018-09-29T05:02:28.657Z,91.56
2018-09-29T05:03:28.634Z,91.75
2018-09-29T05:04:28.620Z,91.56
2018-09-29T05:05:28.590Z,92.04
2018-09-29T05:06:28.609Z,91.85
2018-09-29T05:07:28.545Z,91.66
2018-09-29T05:08:28.520Z,91.19
2018-09-29T05:09:28.501Z,91.66
2018-09-29T05:10:28.476Z,91.42
2018-09-29T05:11:28.452Z,91.38
2018-09-29T05:12:28.428Z,90.90
2018-09-29T05:13:28.406Z,91.56
2018-09-29T05:14:28.382Z,91.47
2018-09-29T05:15:28.358Z,91.66
2018-09-29T05:16:28.337Z,91.85
2018-09-29T05:17:28.364Z,91.56
2018-09-29T05:18:28.305Z,91.85
2018-09-29T05:19:28.315Z,91.56
2018-09-29T05:20:28.247Z,91.75
2018-09-29T05:21:28.222Z,91.47
2018-09-29T05:22:28.199Z,91.19
2018-09-29T05:23:28.178Z,91.09
2018-09-29T05:24:28.152Z,91.94
2018-09-29T05:25:28.130Z,91.89
2018-09-29T05:26:28.108Z,91.28
2018-09-29T05:27:28.086Z,91.75
2018-09-29T05:28:28.063Z,91.66
2018-09-29T05:29:28.038Z,91.38
2018-09-29T05:30:28.018Z,91.56
2018-09-29T05:31:27.992Z,91.09
2018-09-29T05:32:27.994Z,91.09
2018-09-29T05:33:27.948Z,91.09
2018-09-29T05:34:27.933Z,91.66
2018-09-29T05:35:27.947Z,91.85
2018-09-29T05:36:27.878Z,92.13
2018-09-29T05:37:27.879Z,92.23
2018-09-29T05:38:27.893Z,91.85
2018-09-29T05:39:27.808Z,91.85
2018-09-29T05:40:27.788Z,91.56
2018-09-29T05:41:27.764Z,91.47
2018-09-29T05:42:27.741Z,92.04
2018-09-29T05:43:27.719Z,92.61
2018-09-29T05:44:27.709Z,92.61
2018-09-29T05:45:27.673Z,92.51
2018-09-29T05:46:27.651Z,92.61
2018-09-29T05:47:27.630Z,92.90
2018-09-29T05:48:27.602Z,92.42
2018-09-29T05:49:27.580Z,92.13
2018-09-29T05:50:27.556Z,92.13
2018-09-29T05:51:27.536Z,92.04
2018-09-29T05:52:27.514Z,92.61
2018-09-29T05:53:27.493Z,92.42
2018-09-29T05:54:27.467Z,92.04
2018-09-29T05:55:27.441Z,92.46
2018-09-29T05:56:27.421Z,92.13
2018-09-29T05:57:27.396Z,91.61
2018-09-29T05:58:27.375Z,91.52
2018-09-29T05:59:27.351Z,92.08
2018-09-29T06:00:27.400Z,91.71
2018-09-29T06:01:27.312Z,91.89
2018-09-29T06:02:27.282Z,91.33
2018-09-29T06:03:27.256Z,91.13
2018-09-29T06:04:27.234Z,91.71
2018-09-29T06:05:27.254Z,91.89
2018-09-29T06:06:27.189Z,91.89
2018-09-29T06:07:27.325Z,91.71
2018-09-29T06:08:27.145Z,91.71
2018-09-29T06:09:27.123Z,91.89
2018-09-29T06:10:27.102Z,91.89
2018-09-29T06:11:27.074Z,91.80
2018-09-29T06:12:27.051Z,91.80
2018-09-29T06:13:27.029Z,91.52
2018-09-29T06:14:27.005Z,92.08
2018-09-29T06:15:26.981Z,91.61
2018-09-29T06:16:26.978Z,91.61
2018-09-29T06:17:26.944Z,91.42
2018-09-29T06:18:26.916Z,91.61
2018-09-29T06:19:26.891Z,91.99
2018-09-29T06:20:26.866Z,92.08
2018-09-29T06:21:26.846Z,92.03
2018-09-29T06:22:26.821Z,91.71
2018-09-29T06:23:26.799Z,91.61
2018-09-29T06:24:26.777Z,92.03
2018-09-29T06:25:26.760Z,92.46
2018-09-29T06:26:26.732Z,92.66
2018-09-29T06:27:26.706Z,93.13
2018-09-29T06:28:26.685Z,93.51
2018-09-29T06:29:26.661Z,93.79
2018-09-29T06:30:26.641Z,93.84
2018-09-29T06:31:26.615Z,94.22
2018-09-29T06:32:26.597Z,93.46
2018-09-29T06:33:26.572Z,93.55
2018-09-29T06:34:26.555Z,93.75
2018-09-29T06:35:26.524Z,92.89
2018-09-29T06:36:26.502Z,92.70
2018-09-29T06:37:26.478Z,92.70
2018-09-29T06:38:26.460Z,92.89
2018-09-29T06:39:26.431Z,92.61
2018-09-29T06:40:26.640Z,92.51
2018-09-29T06:41:26.387Z,92.51
2018-09-29T06:42:26.364Z,92.61
2018-09-29T06:43:26.344Z,92.41
2018-09-29T06:44:26.318Z,92.89
2018-09-29T06:45:26.294Z,92.99
2018-09-29T06:46:26.273Z,92.89
2018-09-29T06:47:26.251Z,93.37
2018-09-29T06:48:26.228Z,93.08
2018-09-29T06:49:26.204Z,93.04
2018-09-29T06:50:26.189Z,93.23
2018-09-29T06:51:26.185Z,93.13
2018-09-29T06:52:26.137Z,92.94
2018-09-29T06:53:26.112Z,93.04
2018-09-29T06:54:26.134Z,93.04
2018-09-29T06:55:26.068Z,93.60
2018-09-29T06:56:26.046Z,93.79
2018-09-29T06:57:26.021Z,93.70
2018-09-29T06:58:26.006Z,93.70
2018-09-29T06:59:25.982Z,93.51
2018-09-29T07:00:25.964Z,93.79
2018-09-29T07:01:25.943Z,92.84
2018-09-29T07:02:25.913Z,92.75
2018-09-29T07:03:25.903Z,93.32
2018-09-29T07:04:25.863Z,93.70
2018-09-29T07:05:25.844Z,92.94
2018-09-29T07:06:25.819Z,92.56
2018-09-29T07:07:25.797Z,92.03
2018-09-29T07:08:25.773Z,91.75
2018-09-29T07:09:25.751Z,92.22
2018-09-29T07:10:25.728Z,92.03
2018-09-29T07:11:25.705Z,91.84
2018-09-29T07:12:25.684Z,91.27
2018-09-29T07:13:25.661Z,91.37
2018-09-29T07:14:25.640Z,91.08
2018-09-29T07:15:25.615Z,91.37
2018-09-29T07:16:25.591Z,91.65
2018-09-29T07:17:25.570Z,93.46
2018-09-29T07:18:25.549Z,93.08
2018-09-29T07:19:25.527Z,92.79
2018-09-29T07:20:25.503Z,93.08
2018-09-29T07:21:25.522Z,93.08
2018-09-29T07:22:25.460Z,91.65
2018-09-29T07:23:25.445Z,91.84
2018-09-29T07:24:25.440Z,91.65
2018-09-29T07:25:25.424Z,91.56
2018-09-29T07:26:25.368Z,90.56
2018-09-29T07:27:25.349Z,90.27
2018-09-29T07:28:25.322Z,89.98
2018-09-29T07:29:25.313Z,90.27
2018-09-29T07:30:25.286Z,90.17
2018-09-29T07:31:25.311Z,90.36
2018-09-29T07:32:25.234Z,89.61
2018-09-29T07:33:25.214Z,89.89
2018-09-29T07:34:25.192Z,90.46
2018-09-29T07:35:25.166Z,90.65
2018-09-29T07:36:25.166Z,90.17
2018-09-29T07:37:25.123Z,89.89
2018-09-29T07:38:25.101Z,90.65
2018-09-29T07:39:25.079Z,90.75
2018-09-29T07:40:25.099Z,90.75
2018-09-29T07:41:25.037Z,90.75
2018-09-29T07:42:25.020Z,90.08
2018-09-29T07:43:24.992Z,90.75
2018-09-29T07:44:24.967Z,91.27
2018-09-29T07:45:24.944Z,91.94
2018-09-29T07:46:24.936Z,91.27
2018-09-29T07:47:24.899Z,90.98
2018-09-29T07:48:24.882Z,90.70
2018-09-29T07:49:24.855Z,90.31
2018-09-29T07:50:24.838Z,89.55
2018-09-29T07:51:24.814Z,88.98
2018-09-29T07:52:24.790Z,88.98
2018-09-29T07:53:24.767Z,88.31
2018-09-29T07:54:24.745Z,88.89
2018-09-29T07:55:24.727Z,88.98
2018-09-29T07:56:24.700Z,88.31
2018-09-29T07:57:24.689Z,88.03
2018-09-29T07:58:24.656Z,88.12
2018-09-29T07:59:24.649Z,88.03
2018-09-29T08:00:24.612Z,88.03
2018-09-29T08:01:24.590Z,87.74
2018-09-29T08:02:24.570Z,86.98
2018-09-29T08:03:24.545Z,86.98
2018-09-29T08:04:24.532Z,86.88
2018-09-29T08:05:24.503Z,86.98
2018-09-29T08:06:24.532Z,88.51
2018-09-29T08:07:24.458Z,88.60
2018-09-29T08:08:24.438Z,87.40
2018-09-29T08:09:24.420Z,86.03
2018-09-29T08:10:24.398Z,84.98
2018-09-29T08:11:24.379Z,84.79
2018-09-29T08:12:24.409Z,84.98
2018-09-29T08:13:24.326Z,85.31
2018-09-29T08:14:24.307Z,85.64
2018-09-29T08:15:24.282Z,85.97
2018-09-29T08:16:24.261Z,86.26
2018-09-29T08:17:24.241Z,85.50
2018-09-29T08:18:24.222Z,85.02
2018-09-29T08:19:24.196Z,84.36
2018-09-29T08:20:24.181Z,84.55
2018-09-29T08:21:24.150Z,85.31
2018-09-29T08:22:24.129Z,85.78
2018-09-29T08:23:24.108Z,85.69
2018-09-29T08:24:24.155Z,85.31
2018-09-29T08:25:24.065Z,85.50
2018-09-29T08:26:24.046Z,85.41
2018-09-29T08:27:24.019Z,84.16
2018-09-29T08:28:24.000Z,83.50
2018-09-29T08:29:23.986Z,84.36
2018-09-29T08:30:23.954Z,84.07
2018-09-29T08:31:23.934Z,84.16
2018-09-29T08:32:23.998Z,84.36
2018-09-29T08:33:23.952Z,85.02
2018-09-29T08:34:23.868Z,84.64
2018-09-29T08:35:23.847Z,84.97
2018-09-29T08:36:23.834Z,85.12
2018-09-29T08:37:23.805Z,85.06
2018-09-29T08:38:23.810Z,85.06
2018-09-29T08:39:23.761Z,84.88
2018-09-29T08:40:23.739Z,85.06
2018-09-29T08:41:23.720Z,85.06
2018-09-29T08:42:23.695Z,85.45
2018-09-29T08:43:23.698Z,85.54
2018-09-29T08:44:23.657Z,85.45
2018-09-29T08:45:23.634Z,83.73
2018-09-29T08:46:23.608Z,83.16
2018-09-29T08:47:23.588Z,83.54
2018-09-29T08:48:23.567Z,83.54
2018-09-29T08:49:23.544Z,84.20
2018-09-29T08:50:23.523Z,85.35
2018-09-29T08:51:23.501Z,86.11
2018-09-29T08:52:23.483Z,86.21
2018-09-29T08:53:23.544Z,86.21
2018-09-29T08:54:23.435Z,85.45
2018-09-29T08:55:23.417Z,85.25
2018-09-29T08:56:23.394Z,85.87
2018-09-29T08:57:23.442Z,86.21
2018-09-29T08:58:23.353Z,84.40
2018-09-29T08:59:23.330Z,83.73
2018-09-29T09:00:23.309Z,83.87
2018-09-29T09:01:23.294Z,83.64
2018-09-29T09:02:23.272Z,83.11
2018-09-29T09:03:23.243Z,83.20
2018-09-29T09:04:23.223Z,83.11
2018-09-29T09:05:23.208Z,83.39
2018-09-29T09:06:23.181Z,84.34
2018-09-29T09:07:23.168Z,83.58
2018-09-29T09:08:23.141Z,83.29
2018-09-29T09:09:23.149Z,83.48
2018-09-29T09:10:23.101Z,83.01
2018-09-29T09:11:23.074Z,82.72
2018-09-29T09:12:23.064Z,81.48
2018-09-29T09:13:23.031Z,81.86
2018-09-29T09:14:23.013Z,82.06
2018-09-29T09:15:22.990Z,80.91
2018-09-29T09:16:22.967Z,80.15
2018-09-29T09:17:22.951Z,80.43
2018-09-29T09:18:22.927Z,80.33
2018-09-29T09:19:22.912Z,80.53
2018-09-29T09:20:22.913Z,80.62
2018-09-29T09:21:22.861Z,80.62
2018-09-29T09:22:22.842Z,80.05
2018-09-29T09:23:22.880Z,79.57
2018-09-29T09:24:22.884Z,79.48
2018-09-29T09:25:22.787Z,79.48
2018-09-29T09:26:22.754Z,78.81
2018-09-29T09:27:22.733Z,78.94
2018-09-29T09:28:22.726Z,79.00
2018-09-29T09:29:22.695Z,78.91
2018-09-29T09:30:22.703Z,78.72
2018-09-29T09:31:22.652Z,79.10
2018-09-29T09:32:22.629Z,78.62
2018-09-29T09:33:22.608Z,78.91
2018-09-29T09:34:22.587Z,78.05
2018-09-29T09:35:22.662Z,78.05
2018-09-29T09:36:22.548Z,78.81
2018-09-29T09:37:22.522Z,78.14
2018-09-29T09:38:22.504Z,78.37
2018-09-29T09:39:22.480Z,78.09
2018-09-29T09:40:22.458Z,78.33
2018-09-29T09:41:22.438Z,78.85
2018-09-29T09:42:22.418Z,78.85
2018-09-29T09:43:22.414Z,79.71
2018-09-29T09:44:22.376Z,78.75
2018-09-29T09:45:22.358Z,79.14
2018-09-29T09:46:22.336Z,78.47
2018-09-29T09:47:22.312Z,78.18
2018-09-29T09:48:22.301Z,77.51
2018-09-29T09:49:22.310Z,77.03
2018-09-29T09:50:22.249Z,77.32
2018-09-29T09:51:22.227Z,78.56
2018-09-29T09:52:22.206Z,78.94
2018-09-29T09:53:22.186Z,79.04
2018-09-29T09:54:22.165Z,77.03
2018-09-29T09:55:22.146Z,76.37
2018-09-29T09:56:22.127Z,75.03
2018-09-29T09:57:22.112Z,75.51
2018-09-29T09:58:22.092Z,76.27
2018-09-29T09:59:22.066Z,75.89
2018-09-29T10:00:22.040Z,78.37
2018-09-29T10:01:22.022Z,77.89
2018-09-29T10:02:21.999Z,77.89
2018-09-29T10:03:21.978Z,78.18
2018-09-29T10:04:21.956Z,77.51
2018-09-29T10:05:21.936Z,77.23
2018-09-29T10:06:21.934Z,77.42
2018-09-29T10:07:21.894Z,77.80
2018-09-29T10:08:21.875Z,78.18
2018-09-29T10:09:21.853Z,78.22
2018-09-29T10:10:21.836Z,77.42
2018-09-29T10:11:21.814Z,75.54
2018-09-29T10:12:21.789Z,74.59
2018-09-29T10:13:21.781Z,75.16
2018-09-29T10:14:21.748Z,74.78
2018-09-29T10:15:21.728Z,74.27
2018-09-29T10:16:21.707Z,74.30
2018-09-29T10:17:21.691Z,74.93
2018-09-29T10:18:21.670Z,75.22
2018-09-29T10:19:21.668Z,75.74
2018-09-29T10:20:21.625Z,76.31
2018-09-29T10:21:21.605Z,75.35
2018-09-29T10:22:21.583Z,74.78
2018-09-29T10:23:21.565Z,74.78
2018-09-29T10:24:21.562Z,75.35
2018-09-29T10:25:21.523Z,76.12
2018-09-29T10:26:21.500Z,76.03
2018-09-29T10:27:21.479Z,74.69
2018-09-29T10:28:21.458Z,73.07
2018-09-29T10:29:21.437Z,73.73
2018-09-29T10:30:21.420Z,73.63
2018-09-29T10:31:21.396Z,73.92
2018-09-29T10:32:21.382Z,73.92
2018-09-29T10:33:21.356Z,73.54
2018-09-29T10:34:21.336Z,72.78
2018-09-29T10:35:21.315Z,73.07
2018-09-29T10:36:21.410Z,72.58
2018-09-29T10:37:21.276Z,71.92
2018-09-29T10:38:21.255Z,72.87
2018-09-29T10:39:21.231Z,72.39
2018-09-29T10:40:21.212Z,73.83
2018-09-29T10:41:21.190Z,71.92
2018-09-29T10:42:21.232Z,72.78
2018-09-29T10:43:21.150Z,73.54
2018-09-29T10:44:21.133Z,72.97
2018-09-29T10:45:21.448Z,72.87
2018-09-29T10:46:21.126Z,71.82
2018-09-29T10:47:21.068Z,72.39
2018-09-29T10:48:21.049Z,70.87
2018-09-29T10:49:21.032Z,70.01
2018-09-29T10:50:21.005Z,70.20
2018-09-29T10:51:20.987Z,70.39
2018-09-29T10:52:20.965Z,70.87
2018-09-29T10:53:20.969Z,71.53
2018-09-29T10:54:20.958Z,71.34
2018-09-29T10:55:20.903Z,71.28
2018-09-29T10:56:20.887Z,71.19
2018-09-29T10:57:20.971Z,71.76
2018-09-29T10:58:20.849Z,71.67
2018-09-29T10:59:20.822Z,71.76
2018-09-29T11:00:20.800Z,71.57
2018-09-29T11:01:20.984Z,70.90
2018-09-29T11:02:20.767Z,71.28
2018-09-29T11:03:21.336Z,72.05
2018-09-29T11:04:20.720Z,72.24
2018-09-29T11:05:20.747Z,71.47
2018-09-29T11:06:20.680Z,72.62
2018-09-29T11:07:20.659Z,70.81
2018-09-29T11:08:20.640Z,71.09
2018-09-29T11:09:20.626Z,71.38
2018-09-29T11:10:20.599Z,72.05
2018-09-29T11:11:20.725Z,70.52
2018-09-29T11:12:20.559Z,70.42
2018-09-29T11:13:20.562Z,68.61
2018-09-29T11:14:20.592Z,68.23
2018-09-29T11:15:20.576Z,68.41
2018-09-29T11:16:20.477Z,68.41
2018-09-29T11:17:20.458Z,68.99
2018-09-29T11:18:20.439Z,68.61
2018-09-29T11:19:20.417Z,68.61
2018-09-29T11:20:20.398Z,68.23
2018-09-29T11:21:20.377Z,68.41
2018-09-29T11:22:20.357Z,68.80
2018-09-29T11:23:20.336Z,68.84
2018-09-29T11:24:20.326Z,68.90
2018-09-29T11:25:20.299Z,68.80
2018-09-29T11:26:20.283Z,69.89
2018-09-29T11:27:20.257Z,70.07
2018-09-29T11:28:20.309Z,70.52
2018-09-29T11:29:20.215Z,71.57
2018-09-29T11:30:20.200Z,70.07
2018-09-29T11:31:20.181Z,68.84
2018-09-29T11:32:20.156Z,67.59
2018-09-29T11:33:20.136Z,66.73
2018-09-29T11:34:20.116Z,64.91
2018-09-29T11:35:20.360Z,63.76
2018-09-29T11:36:20.197Z,63.48
2018-09-29T11:37:20.054Z,64.43
2018-09-29T11:38:20.035Z,65.11
2018-09-29T11:39:20.043Z,65.97
2018-09-29T11:40:20.031Z,66.25
2018-09-29T11:41:19.978Z,66.73
2018-09-29T11:42:19.957Z,67.11
2018-09-29T11:43:19.992Z,66.83
2018-09-29T11:44:19.913Z,66.83
2018-09-29T11:45:19.895Z,63.76
2018-09-29T11:46:19.874Z,63.86
2018-09-29T11:47:19.858Z,63.48
2018-09-29T11:48:19.839Z,63.10
2018-09-29T11:49:19.821Z,62.81
2018-09-29T11:50:19.795Z,64.05
2018-09-29T11:51:19.774Z,63.76
2018-09-29T11:52:19.756Z,63.67
2018-09-29T11:53:19.737Z,64.43
2018-09-29T11:54:19.716Z,64.25
2018-09-29T11:55:19.695Z,65.58
2018-09-29T11:56:19.704Z,64.62
2018-09-29T11:57:19.665Z,65.01
2018-09-29T11:58:19.635Z,65.97
2018-09-29T11:59:19.614Z,65.01
2018-09-29T12:00:19.613Z,66.35
2018-09-29T12:01:19.577Z,65.77
2018-09-29T12:02:19.569Z,65.77
2018-09-29T12:03:19.536Z,66.25
2018-09-29T12:04:19.516Z,67.02
2018-09-29T12:05:19.496Z,66.92
2018-09-29T12:06:19.502Z,67.30
2018-09-29T12:07:19.537Z,65.39
2018-09-29T12:08:19.436Z,65.01
2018-09-29T12:09:19.418Z,66.73
2018-09-29T12:10:19.399Z,67.69
2018-09-29T12:11:19.377Z,65.68
2018-09-29T12:12:19.362Z,66.16
2018-09-29T12:13:19.343Z,65.68
2018-09-29T12:14:19.318Z,66.35
2018-09-29T12:15:19.301Z,65.11
2018-09-29T12:16:19.278Z,63.10
2018-09-29T12:17:19.261Z,62.62
2018-09-29T12:18:19.241Z,62.71
2018-09-29T12:19:19.217Z,62.52
2018-09-29T12:20:19.198Z,62.62
2018-09-29T12:21:19.193Z,61.85
2018-09-29T12:22:19.214Z,61.85
2018-09-29T12:23:19.232Z,60.99
2018-09-29T12:24:19.119Z,61.38
2018-09-29T12:25:19.112Z,61.95
2018-09-29T12:26:19.077Z,62.14
2018-09-29T12:27:19.061Z,62.33
2018-09-29T12:28:19.039Z,63.29
2018-09-29T12:29:19.023Z,63.67
2018-09-29T12:30:18.998Z,63.57
2018-09-29T12:31:18.979Z,63.96
2018-09-29T12:32:18.959Z,63.67
2018-09-29T12:33:18.940Z,63.57
2018-09-29T12:34:18.920Z,63.39
2018-09-29T12:35:18.899Z,64.53
2018-09-29T12:36:18.881Z,64.53
2018-09-29T12:37:18.966Z,62.90
2018-09-29T12:38:18.846Z,62.62
2018-09-29T12:39:18.915Z,63.67
2018-09-29T12:40:18.806Z,62.90
2018-09-29T12:41:18.782Z,62.65
2018-09-29T12:42:18.761Z,63.39
2018-09-29T12:43:18.741Z,63.03
2018-09-29T12:44:18.821Z,63.42
2018-09-29T12:45:18.745Z,65.01
2018-09-29T12:46:18.684Z,65.14
2018-09-29T12:47:18.663Z,62.65
2018-09-29T12:48:18.644Z,62.27
2018-09-29T12:49:18.621Z,63.32
2018-09-29T12:50:18.608Z,63.13
2018-09-29T12:51:18.586Z,62.90
2018-09-29T12:52:18.570Z,63.03